< < Back
Terminal Aerodrome Forecast


Current Version              Previous Versions:   1  2  3  4  5  6  7  8  9  

Terminal Aerodrome Forecast

520
FTUS42 KFFC 292300
TAFCSG
TAF
KCSG 292340Z 3000/3024 06005KT P6SM VCSH BKN015
     FM300300 06004KT 6SM BR BKN022
     FM300500 06004KT 5SM BR BKN008
     FM300700 06004KT 4SM BR OVC004
     FM301400 06005KT 6SM BR BKN015
     FM301700 06006KT P6SM SCT040=

Latest METAR

288
SAUS70 KWBC 301000
MTRCSG
METAR KCSG 300951Z AUTO 06003KT 9SM FEW007 BKN012 OVC025 20/19 A2991 RMK
AO2 RAE13 SLP125 P0000 T02000189


USA.gov is the U.S. government's official web portal to all federal, state and local government web resources and services.